Prides Crossing, Massachusetts
Current Conditions -  °F | °C
As of 9:53 PM on Wednesday 26 Nov 2014 (Local Time) from KBVY Reporting Station
Light Snow Light Snow  
Wind Chill: 22°   Ceiling: 600
Heat Index: 33°   Visibility: 1.2mi
Dew Point: 30°   Wind: 17mph
Humidity: 89%   Direction: 360°N
Pressure: 29.69"   Gusts: 26mph
Location:  42.56°N, 70.82°W
Report Text: KBVY 270253Z AUTO 36015G23KT 1 1/4SM -SN BR OVC006 01/M01 A2969 RMK AO2 PK WND 03028/0201 RAE32SNB32 PRESFR SLP050 P0006 60029 I3000 T00061011 56040
Loading
Personal Weather Stations






























Interactive Weather Map New forecast layout! Learn more

10-Day Weather Forecast

Advertisements
Track Severe Weather on mobile